Maple Grove, Canada
Current Conditions -  °F | °C
As of 3:00 PM on Thursday 18 Dec 2014 (Local Time) from CYUL Reporting Station
Overcast Overcast  
Wind Chill: 22°   Ceiling: 2400
Heat Index: 32°   Visibility: 15mi
Dew Point: 27°   Wind: 14mph
Humidity: 80%   Direction: 280°W
Pressure: 29.88"   Gusts: NA
Location:  45.32°N, 73.85°W
Report Text: CYUL 182000Z 28012KT 15SM FEW009 BKN024 OVC040 M00/M03 A2988 RMK SF1SC7SC1 SF TR SLP119
Loading
Personal Weather Stations






























Interactive Weather Map New forecast layout! Learn more

10-Day Weather Forecast

Advertisements
Track Severe Weather on mobile